Teulon, Canada
Current Conditions -  °F | °C
As of 10:00 PM on Wednesday 17 Dec 2014 (Local Time) from CYWG Reporting Station
Clear Clear  
Wind Chill:   Ceiling: Unl
Heat Index:   Visibility: 15mi
Dew Point:   Wind: 2mph
Humidity: 85%   Direction: NA
Pressure: 30.32"   Gusts: NA
Location:  50.38°N, 97.27°W
Report Text: CYWG 180400Z VRB02KT 15SM SKC M14/M16 A3032 RMK SLP292
Loading
Personal Weather Stations






























Interactive Weather Map New forecast layout! Learn more

10-Day Weather Forecast

Advertisements
Track Severe Weather on mobile